Aviation Digital Data Service (ADDS)

Output produced by METARs form (0048 UTC 24 May 2019)
found at http://www.aviationweather.gov/metar/data/
 
LTAF 240020Z VRB02KT CAVOK 24/16 Q1007 NOSIG RMK RWY23 05005KT
TAF LTAF 232240Z 2400/2424 VRB02KT CAVOK 
     BECMG 2409/2411 18012KT 
     BECMG 2416/2418 VRB02KT
       
TAF LTCP 231340Z 2315/2324 21008KT 9999 FEW040 BKN100 
     BECMG 2320/2322 CAVOK
       
LTBJ 240020Z 00000KT CAVOK 16/12 Q1008 NOSIG RMK RWY16 08003KT 040V100
TAF LTBJ 232240Z 2400/2424 VRB02KT CAVOK 
     BECMG 2406/2408 21012KT SCT030 
     TEMPO 2411/2415 -TSRA FEW015CB BKN025 
     BECMG 2412/2415 35013KT 
     PROB40 
     TEMPO 2415/2418 -TSRA FEW015CB BKN025 
     BECMG 2418/2420 VRB02KT
       
TAF LTAH 231340Z 2315/2324 VRB02KT 9999 SCT040 BKN100 
     BECMG 2316/2319 CAVOK
       
TAF LTCO 231340Z 2315/2324 24012KT 9999 FEW030CB BKN035 
     TEMPO 2315/2318 SHRA 
     BECMG 2318/2320 VRB02KT SCT035
       
TAF LTBT 231340Z 2315/2324 VRB02KT 9999 FEW040 SCT100 
     BECMG 2316/2318 CAVOK
       
TAF LTAE 232240Z 2400/2409 VRB02KT CAVOK 
     BECMG 2400/2403 SCT040 BKN100 
     TEMPO 2403/2407 -SHRA FEW025CB BKN030
       
LTBY 232350Z VRB01KT CAVOK 11/10 Q1012
TAF LTBY 232240Z 2400/2409 VRB02KT CAVOK 
     BECMG 2401/2403 SCT040 SCT100
       
LTAI 240020Z 34005KT 9999 SCT030 22/13 Q1007 NOSIG RMK RWY18C 31005KT RWY36R 31004KT 280V340 RWY18L 31004KT
TAF LTAI 232240Z 2400/2424 34007KT 9999 SCT030 
     BECMG 2406/2409 16010KT 
     TEMPO 2415/2418 -SHRA BKN030 
     BECMG 2418/2421 36007KT
       
LTBA 240020Z 35012KT CAVOK 18/16 Q1008 NOSIG RMK RWY17L 00000KT RWY05 34008KT RWY23 01009KT
TAF LTBA 232240Z 2400/2506 35012KT 9999 SCT035 BKN100 
     BECMG 2400/2403 -SHRA FEW022TCU BKN030 
     TEMPO 2402/2406 -TSRA FEW017CB BKN025 
     TEMPO 2406/2410 35015G28KT 4000 TSRA SCT017CB BKN025 
     BECMG 2410/2413 24012KT CAVOK 
     BECMG 2417/2421 SCT035
       
LTBF 232350Z 00000KT CAVOK 17/15 Q1008 NOSIG
TAF LTBF 232240Z 2400/2409 VRB02KT CAVOK 
     BECMG 2401/2403 SCT035 BKN100 
     BECMG 2403/2406 -SHRA 
     PROB30 
     TEMPO 2406/2409 -TSRA SCT025CB SCT035
       
LTBG 240041Z 35008KT 320V020 9999 -TSRA FEW025CB SCT035 BKN100 19/16 Q1007 RETS BECMG TL0140 NSW RMK RWY18 01007KT
TAF LTBG 232240Z 2400/2409 01010KT 9999 SCT035 BKN100 
     TEMPO 2400/2403 -SHRA BKN030 
     TEMPO 2406/2409 -TSRA FEW025CB BKN030
       
LTCJ 240020Z 05006KT 9999 BKN200 18/14 Q1012 RMK RWY20 VRB01KT
TAF LTCJ 232240Z 2400/2424 VRB02KT 9999 BKN200 
     BECMG 2402/2404 CAVOK 
     BECMG 2407/2409 22012KT FEW040 SCT100 BKN200 
     BECMG 2415/2417 VRB02KT
       
LTBH 232150Z 03005KT CAVOK 19/13 Q1009
TAF LTBH 232240Z 2400/2409 03008KT 9999 SCT035 BKN100 
     TEMPO 2400/2403 -SHRA BKN030 
     TEMPO 2406/2409 -TSRA FEW025CB BKN030
       
LTAY 232350Z 14005KT 9999 SCT035 BKN100 15/12 Q1011
TAF LTAY 232240Z 2400/2409 VRB02KT 9999 SCT035 BKN100
       
LTFH 232350Z 18002KT 6000 SCT004 15/14 Q1010 NOSIG
TAF AMD LTFH 240001Z 2400/2409 VRB02KT 6000 SCT004
       
TAF LTBL 232240Z 2400/2409 VRB02KT 9999 FEW040
       
LTBU 240020Z 02007KT CAVOK 16/11 Q1008 RMK RWY22 03006KT
TAF LTBU 232240Z 2400/2424 02012KT CAVOK 
     BECMG 2400/2403 SCT025 BKN080 
     TEMPO 2402/2404 -SHRA FEW022TCU BKN025 
     PROB30 
     TEMPO 2403/2406 35015G28KT 4000 TSRA FEW018CB BKN025 
     TEMPO 2406/2410 35015G28KT 4000 TSRA SCT015CB BKN025 
     BECMG 2412/2415 VRB02KT
       
LTBS 240020Z 01003KT 340V080 9999 SCT100 18/16 Q1008 NOSIG RMK RWY19 00000KT
TAF LTBS 232240Z 2400/2424 VRB02KT 9999 SCT030 BKN080 
     BECMG 2400/2402 CAVOK 
     BECMG 2406/2408 22012KT FEW030 BKN180 
     BECMG 2415/2417 VRB02KT CAVOK
       
LTCC 240020Z 26004KT 200V320 CAVOK 17/14 Q1012 NOSIG RMK RWY16 28003KT 250V320
TAF LTCC 232240Z 2400/2424 VRB02KT CAVOK 
     BECMG 2408/2410 22012KT 
     BECMG 2416/2418 VRB02KT
       
LTFD 232350Z VRB01KT CAVOK 16/13 Q1007
TAF LTFD 232240Z 2400/2409 VRB02KT CAVOK 
     BECMG 2403/2406 SCT035 BKN100 
     PROB30 
     TEMPO 2406/2409 -TSRA SCT025CB SCT035
       
LTCA 232350Z 23005KT 9999 FEW035 BKN180 16/14 Q1013 NOSIG
TAF LTCA 232240Z 2400/2409 VRB02KT 9999 FEW035 BKN180 
     BECMG 2406/2408 21012G25KT
       
LTAT 240020Z 23004KT CAVOK 13/09 Q1013 NOSIG RMK RWY03 24004KT
TAF LTAT 232240Z 2400/2424 21008KT CAVOK 
     BECMG 2405/2407 FEW040 BKN200 
     BECMG 2418/2420 CAVOK
       
LTAU 240020Z 07008KT 9999 SCT040 BKN120 16/11 Q1013 NOSIG RMK RWY07 04013KT
TAF LTAU 232240Z 2400/2424 VRB02KT 9999 SCT040 BKN120 
     PROB30 2403/2407 -SHRA BKN030 BKN090 
     BECMG 2406/2409 24015G35KT 
     PROB30 
     TEMPO 2409/2413 -TSRA FEW025CB BKN030 
     PROB40 
     TEMPO 2413/2417 -TSRA FEW025CB BKN030 
     BECMG 2418/2421 16008KT CAVOK
       
LTCD 232350Z 32004KT 9999 FEW045 SCT100 16/11 Q1016 NOSIG
TAF LTCD 232240Z 2400/2409 VRB02KT 9999 FEW045 SCT100
       
LTCE 240020Z 00000KT 9999 SCT035 BKN070 11/10 Q1019 NOSIG RMK RWY08R 36003KT 340V040 RWY26R 33001KT RWY08L 02002KT
TAF LTCE 232240Z 2400/2424 VRB02KT 9999 SCT035 BKN070 
     BECMG 2406/2408 20014KT FEW030CB BKN035 
     TEMPO 2408/2412 TS 
     BECMG 2412/2415 VRB02KT 
     TEMPO 2412/2415 TS
       
LTAC 240020Z VRB01KT 9999 SCT040 09/08 Q1012 NOSIG RMK RWY21L VRB02KT RWY03L VRB01KT RWY21R 03003KT 020V100
TAF LTAC 232240Z 2400/2424 VRB02KT 9999 SCT040 
     TEMPO 2404/2408 -SHRA BKN030 BKN080 
     TEMPO 2411/2415 25015G30KT -TSRA FEW025CB BKN030 
     TEMPO 2416/2420 24015KT -SHRA FEW030CB BKN035
       
TAF LTBI 232240Z 2400/2409 VRB02KT CAVOK 
     BECMG 2401/2403 SCT040 SCT100
       
LTAD 240033Z 27003KT 220V300 9999 -SHRA SCT040 BKN100 11/09 Q1012 NOSIG RMK RWY29 22002KT
TAF LTAD 232240Z 2400/2409 VRB02KT CAVOK 
     BECMG 2400/2403 SCT040 BKN100 
     TEMPO 2403/2407 -SHRA FEW030CB BKN035
       
TAF LTBK 231340Z 2315/2324 VRB02KT CAVOK
       
TAF LTAB 232240Z 2400/2409 VRB02KT 9999 SCT040 BKN100 
     TEMPO 2403/2406 -SHRA BKN030 BKN090 
     BECMG 2406/2408 23012KT
       
LTAG 240020Z 04003KT CAVOK 20/15 Q1007 NOSIG
TAF LTAG 232240Z 2400/2424 VRB02KT CAVOK 
     BECMG 2410/2411 18012KT 
     BECMG 2416/2418 VRB02KT SCT030
       
LTCN 232350Z 09005KT 9999 FEW040 SCT100 16/09 Q1012 NOSIG
TAF LTCN 232240Z 2400/2409 VRB02KT 9999 FEW040 BKN100
       
TAF LTFA 231340Z 2315/2324 VRB02KT CAVOK
       
LTAZ 240020Z 13010KT 9999 SCT040 BKN120 17/12 Q1012 RMK RWY29 16006KT 110V180
TAF LTAZ 232240Z 2400/2424 VRB02KT 9999 SCT040 BKN120 
     BECMG 2406/2409 19015G35KT 
     PROB30 
     TEMPO 2409/2413 -TSRA FEW025CB BKN030 
     PROB40 
     TEMPO 2413/2417 -TSRA FEW025CB BKN030 
     BECMG 2418/2421 25008KT CAVOK
       
LTCF 232350Z 29001KT 9999 SCT035 09/07 Q1019
TAF LTCF 232240Z 2400/2409 20008KT 9999 SCT035 
     BECMG 2406/2409 FEW030CB BKN035
       
TAF LTAL 231340Z 2315/2324 VRB02KT 9999 SCT036 BKN100
       
LTAN 232350Z 24004KT 9999 FEW040 SCT120 18/06 Q1012 NOSIG
TAF LTAN 232240Z 2400/2409 VRB02KT 9999 FEW040 BKN100 
     BECMG 2406/2409 22020G38KT
       
TAF LTBN 231340Z 2315/2324 VRB02KT 9999 SCT040 BKN100 
     BECMG 2316/2319 CAVOK
       
TAF LTCR 231340Z 2315/2324 27009KT 9999 FEW040 BKN100 
     BECMG 2316/2318 CAVOK
       
LTAP 240020Z VRB02KT 9999 FEW040 11/10 Q1011 NOSIG RMK RWY23 VRB02KT
TAF LTAP 232240Z 2400/2424 VRB02KT 9999 SCT040 BKN100 
     PROB30 
     TEMPO 2405/2408 -SHRA FEW030CB BKN035 
     BECMG 2411/2414 03015KT 
     TEMPO 2412/2416 -TSRA FEW030CB BKN033 
     BECMG 2418/2421 VRB02KT
       
LTFE 240020Z 11005KT 9999 FEW035 BKN100 17/15 Q1008 NOSIG RMK RWY10 07004KT 340V110
TAF LTFE 232240Z 2400/2424 VRB02KT 9999 FEW035 BKN100 
     TEMPO 2400/2402 -SHRA 
     BECMG 2407/2409 26013KT 
     BECMG 2415/2418 VRB02KT CAVOK
       
LTCK 231850Z 04003KT 9999 FEW040 SCT070 17/10 Q1019
TAF LTCK 231340Z 2315/2324 VRB02KT 9999 SCT040 BKN080
       
LTAJ 240020Z 00000KT 9999 FEW040 BKN100 14/M01 Q1011 NOSIG RMK RWY10 26003KT 180V290
TAF LTAJ 232240Z 2400/2424 VRB02KT 9999 FEW040 BKN100
       
LTFJ 240020Z 02010KT 9999 FEW035 19/13 Q1007 NOSIG RMK RWY24 35006KT
TAF LTFJ 232240Z 2400/2424 02009KT 9999 SCT035 
     TEMPO 2403/2407 02015G25KT -TSRA FEW016CB BKN025 
     TEMPO 2407/2411 02020G30KT 4000 TSRA FEW016CB BKN025
       
TAF LTBX 231340Z 2315/2324 25010KT 9999 SCT035 
     BECMG 2315/2317 03007KT
       
TAF LTCL 231340Z 2315/2324 VRB02KT 9999 FEW040 BKN200 
     BECMG 2315/2317 CAVOK
       
TAF LTCM 231340Z 2315/2324 VRB02KT 9999 SCT036 BKN100
       
TAF LTAV 231340Z 2315/2324 VRB02KT 9999 SCT040 BKN100 
     BECMG 2316/2319 CAVOK
       
LTFC 240020Z 35007KT 9999 FEW025CB SCT030 14/11 Q1011 RMK RWY23 32009KT
TAF LTFC 232240Z 2400/2424 36005KT 9999 -SHRA FEW020CB BKN030 
     BECMG 2400/2404 SCT035 
     BECMG 2406/2409 21010G20KT 
     BECMG 2415/2418 33007KT 
     PROB40 2419/2423 18010KT -TSRA FEW020CB BKN030
       
TAF LTAW 231340Z 2315/2324 19005KT 9999 BKN032 BKN090 
     TEMPO 2315/2318 -SHRA FEW027CB BKN030
       
LTBQ 232350Z 00000KT CAVOK 13/13 Q1009 NOSIG
TAF LTBQ 232240Z 2400/2409 VRB02KT 9999 SCT040 BKN100 
     TEMPO 2400/2403 -SHRA 
     PROB30 
     TEMPO 2403/2406 -TSRA FEW025CB BKN030 
     PROB30 
     TEMPO 2406/2409 30015G25KT 4000 TSRA SCT025CB BKN030
       
LTCG 240020Z 19004KT 9999 SCT035 BKN100 19/14 Q1011 NOSIG RMK RWY29 17005KT
TAF LTCG 232240Z 2400/2424 VRB02KT 9999 SCT035 BKN100 
     TEMPO 2410/2414 28012KT -SHRA SCT012 FEW020CB BKN033 
     PROB40 
     TEMPO 2414/2418 28012KT -SHRA SCT012 FEW020CB BKN028
       
LTCI 232350Z 14004KT 9999 SCT035 BKN070 15/06 Q1019 NOSIG
TAF LTCI 232240Z 2400/2409 15008KT 9999 SCT035 BKN070 
     BECMG 2407/2409 27015G25KT
       
TAF LTBP 231340Z 2315/2324 VRB02KT 9999 SCT035
       
LTBR 240020Z 00000KT 9999 SCT035 BKN100 14/14 Q1008 NOSIG RMK RWY07 02004KT 350V060
TAF LTBR 232240Z 2400/2424 VRB02KT 9999 SCT035 BKN100 
     BECMG 2400/2403 -SHRA BKN030 BKN090 
     PROB30 
     TEMPO 2404/2408 25015KT 3500 TSRA SCT022CB BKN027 
     PROB40 
     TEMPO 2409/2413 30025G40KT TSGRRA SCT025CB BKN030 
     TEMPO 2414/2418 27015G25KT 4500 TSRA SCT025CB BKN030